sensor_id;sensor_type;location;lat;lon;timestamp;pressure;altitude;pressure_sealevel;temperature;humidity
59435;BME280;45241;49.768;8.636;2024-01-15T00:01:04;99195.94;;;-2.61;100.00
59435;BME280;45241;49.768;8.636;2024-01-15T00:03:29;99205.22;;;-2.47;100.00
59435;BME280;45241;49.768;8.636;2024-01-15T00:05:54;99197.50;;;-2.49;100.00
59435;BME280;45241;49.768;8.636;2024-01-15T00:08:19;99200.00;;;-2.37;100.00
59435;BME280;45241;49.768;8.636;2024-01-15T00:10:45;99178.75;;;-2.34;100.00
59435;BME280;45241;49.768;8.636;2024-01-15T00:13:10;99178.72;;;-2.44;100.00
59435;BME280;45241;49.768;8.636;2024-01-15T00:15:35;99169.03;;;-2.43;100.00
59435;BME280;45241;49.768;8.636;2024-01-15T00:18:01;99169.75;;;-2.41;100.00
59435;BME280;45241;49.768;8.636;2024-01-15T00:20:26;99181.59;;;-2.47;100.00
59435;BME280;45241;49.768;8.636;2024-01-15T00:22:51;99168.50;;;-2.37;100.00
59435;BME280;45241;49.768;8.636;2024-01-15T00:25:16;99163.69;;;-2.32;100.00
59435;BME280;45241;49.768;8.636;2024-01-15T00:27:42;99169.75;;;-2.41;100.00
59435;BME280;45241;49.768;8.636;2024-01-15T00:30:08;99169.28;;;-2.56;100.00
59435;BME280;45241;49.768;8.636;2024-01-15T00:32:34;99170.13;;;-2.46;100.00
59435;BME280;45241;49.768;8.636;2024-01-15T00:34:59;99162.25;;;-2.56;100.00
59435;BME280;45241;49.768;8.636;2024-01-15T00:37:24;99163.66;;;-2.52;100.00
59435;BME280;45241;49.768;8.636;2024-01-15T00:39:50;99161.41;;;-2.56;100.00
59435;BME280;45241;49.768;8.636;2024-01-15T00:42:15;99166.09;;;-2.60;100.00
59435;BME280;45241;49.768;8.636;2024-01-15T00:44:42;99153.88;;;-2.40;100.00
59435;BME280;45241;49.768;8.636;2024-01-15T00:47:07;99153.53;;;-2.66;100.00
59435;BME280;45241;49.768;8.636;2024-01-15T00:49:33;99154.38;;;-2.56;100.00
59435;BME280;45241;49.768;8.636;2024-01-15T00:51:58;99148.16;;;-2.55;100.00
59435;BME280;45241;49.768;8.636;2024-01-15T00:54:23;99141.13;;;-2.44;100.00
59435;BME280;45241;49.768;8.636;2024-01-15T00:56:48;99138.75;;;-2.57;100.00
59435;BME280;45241;49.768;8.636;2024-01-15T00:59:14;99139.47;;;-2.46;100.00
59435;BME280;45241;49.768;8.636;2024-01-15T01:01:43;99152.31;;;-2.42;100.00
59435;BME280;45241;49.768;8.636;2024-01-15T01:04:11;99149.97;;;-2.46;100.00
59435;BME280;45241;49.768;8.636;2024-01-15T01:06:36;99153.63;;;-2.27;100.00
59435;BME280;45241;49.768;8.636;2024-01-15T01:09:01;99146.81;;;-2.30;100.00
59435;BME280;45241;49.768;8.636;2024-01-15T01:11:27;99143.09;;;-2.37;100.00
59435;BME280;45241;49.768;8.636;2024-01-15T01:13:52;99143.94;;;-2.36;100.00
59435;BME280;45241;49.768;8.636;2024-01-15T01:16:17;99138.13;;;-2.30;100.00
59435;BME280;45241;49.768;8.636;2024-01-15T01:18:43;99144.09;;;-2.28;100.00
59435;BME280;45241;49.768;8.636;2024-01-15T01:21:08;99140.50;;;-2.27;100.00
59435;BME280;45241;49.768;8.636;2024-01-15T01:23:33;99132.06;;;-2.21;100.00
59435;BME280;45241;49.768;8.636;2024-01-15T01:25:58;99134.16;;;-2.15;100.00
59435;BME280;45241;49.768;8.636;2024-01-15T01:28:24;99130.38;;;-2.32;100.00
59435;BME280;45241;49.768;8.636;2024-01-15T01:30:49;99136.47;;;-2.22;100.00
59435;BME280;45241;49.768;8.636;2024-01-15T01:33:15;99133.03;;;-2.22;100.00
59435;BME280;45241;49.768;8.636;2024-01-15T01:35:40;99142.84;;;-2.24;100.00
59435;BME280;45241;49.768;8.636;2024-01-15T01:38:05;99142.16;;;-2.26;100.00
59435;BME280;45241;49.768;8.636;2024-01-15T01:40:31;99133.44;;;-2.17;100.00
59435;BME280;45241;49.768;8.636;2024-01-15T01:42:56;99146.56;;;-2.17;100.00
59435;BME280;45241;49.768;8.636;2024-01-15T01:45:21;99136.06;;;-2.17;100.00
59435;BME280;45241;49.768;8.636;2024-01-15T01:47:47;99135.38;;;-2.09;100.00
59435;BME280;45241;49.768;8.636;2024-01-15T01:50:13;99129.59;;;-2.13;100.00
59435;BME280;45241;49.768;8.636;2024-01-15T01:52:39;99130.81;;;-2.17;100.00
59435;BME280;45241;49.768;8.636;2024-01-15T01:55:06;99130.53;;;-2.04;100.00
59435;BME280;45241;49.768;8.636;2024-01-15T01:57:33;99134.84;;;-2.13;100.00
59435;BME280;45241;49.768;8.636;2024-01-15T02:00:00;99136.50;;;-2.12;100.00
59435;BME280;45241;49.768;8.636;2024-01-15T02:02:26;99131.50;;;-1.96;100.00
59435;BME280;45241;49.768;8.636;2024-01-15T02:04:52;99134.69;;;-2.02;100.00
59435;BME280;45241;49.768;8.636;2024-01-15T02:07:17;99147.00;;;-2.12;100.00
59435;BME280;45241;49.768;8.636;2024-01-15T02:09:44;99139.41;;;-2.15;100.00
59435;BME280;45241;49.768;8.636;2024-01-15T02:12:09;99144.78;;;-2.07;100.00
59435;BME280;45241;49.768;8.636;2024-01-15T02:14:35;99139.66;;;-2.08;100.00
59435;BME280;45241;49.768;8.636;2024-01-15T02:17:00;99136.63;;;-2.13;100.00
59435;BME280;45241;49.768;8.636;2024-01-15T02:19:26;99140.22;;;-2.05;100.00
59435;BME280;45241;49.768;8.636;2024-01-15T02:21:51;99133.44;;;-1.98;100.00
59435;BME280;45241;49.768;8.636;2024-01-15T02:24:16;99118.50;;;-1.97;100.00
59435;BME280;45241;49.768;8.636;2024-01-15T02:26:42;99138.13;;;-1.92;100.00
59435;BME280;45241;49.768;8.636;2024-01-15T02:29:08;99129.31;;;-2.00;100.00
59435;BME280;45241;49.768;8.636;2024-01-15T02:31:35;99133.31;;;-1.96;100.00
59435;BME280;45241;49.768;8.636;2024-01-15T02:34:00;99121.16;;;-1.97;100.00
59435;BME280;45241;49.768;8.636;2024-01-15T02:36:25;99120.47;;;-1.99;100.00
59435;BME280;45241;49.768;8.636;2024-01-15T02:38:50;99127.47;;;-1.90;100.00
59435;BME280;45241;49.768;8.636;2024-01-15T02:41:16;99125.41;;;-1.77;100.00
59435;BME280;45241;49.768;8.636;2024-01-15T02:43:41;99118.66;;;-1.89;100.00
59435;BME280;45241;49.768;8.636;2024-01-15T02:46:06;99104.81;;;-1.81;100.00
59435;BME280;45241;49.768;8.636;2024-01-15T02:48:32;99119.88;;;-1.83;100.00
59435;BME280;45241;49.768;8.636;2024-01-15T02:50:58;99124.56;;;-1.77;100.00
59435;BME280;45241;49.768;8.636;2024-01-15T02:53:23;99117.13;;;-1.82;100.00
59435;BME280;45241;49.768;8.636;2024-01-15T02:55:49;99101.06;;;-1.79;100.00
59435;BME280;45241;49.768;8.636;2024-01-15T02:58:14;99105.78;;;-1.82;100.00
59435;BME280;45241;49.768;8.636;2024-01-15T03:00:39;99108.00;;;-1.88;100.00
59435;BME280;45241;49.768;8.636;2024-01-15T03:03:05;99112.16;;;-1.85;100.00
59435;BME280;45241;49.768;8.636;2024-01-15T03:05:30;99116.69;;;-1.77;100.00
59435;BME280;45241;49.768;8.636;2024-01-15T03:07:55;99106.31;;;-1.69;100.00
59435;BME280;45241;49.768;8.636;2024-01-15T03:10:21;99106.19;;;-1.77;100.00
59435;BME280;45241;49.768;8.636;2024-01-15T03:12:46;99100.00;;;-1.86;100.00
59435;BME280;45241;49.768;8.636;2024-01-15T03:15:11;99105.63;;;-1.91;100.00
59435;BME280;45241;49.768;8.636;2024-01-15T03:17:37;99091.44;;;-1.88;100.00
59435;BME280;45241;49.768;8.636;2024-01-15T03:20:02;99102.03;;;-1.90;100.00
59435;BME280;45241;49.768;8.636;2024-01-15T03:22:28;99104.81;;;-1.81;100.00
59435;BME280;45241;49.768;8.636;2024-01-15T03:24:53;99100.53;;;-1.82;100.00
59435;BME280;45241;49.768;8.636;2024-01-15T03:27:18;99099.00;;;-1.85;100.00
59435;BME280;45241;49.768;8.636;2024-01-15T03:29:44;99115.31;;;-1.81;100.00
59435;BME280;45241;49.768;8.636;2024-01-15T03:32:09;99111.19;;;-1.84;100.00
59435;BME280;45241;49.768;8.636;2024-01-15T03:34:34;99104.28;;;-1.85;100.00
59435;BME280;45241;49.768;8.636;2024-01-15T03:37:00;99106.34;;;-1.89;100.00
59435;BME280;45241;49.768;8.636;2024-01-15T03:39:25;99112.16;;;-1.85;100.00
59435;BME280;45241;49.768;8.636;2024-01-15T03:41:50;99105.78;;;-1.82;100.00
59435;BME280;45241;49.768;8.636;2024-01-15T03:44:15;99099.41;;;-1.80;100.00
59435;BME280;45241;49.768;8.636;2024-01-15T03:46:41;99100.53;;;-1.82;100.00
59435;BME280;45241;49.768;8.636;2024-01-15T03:49:06;99096.38;;;-1.75;100.00
59435;BME280;45241;49.768;8.636;2024-01-15T03:51:32;99083.78;;;-1.72;100.00
59435;BME280;45241;49.768;8.636;2024-01-15T03:53:57;99078.41;;;-1.80;100.00
59435;BME280;45241;49.768;8.636;2024-01-15T03:56:22;99065.69;;;-1.75;100.00
59435;BME280;45241;49.768;8.636;2024-01-15T03:58:48;99068.03;;;-1.81;100.00
59435;BME280;45241;49.768;8.636;2024-01-15T04:01:13;99072.84;;;-1.67;100.00
59435;BME280;45241;49.768;8.636;2024-01-15T04:03:38;99063.81;;;-1.55;100.00
59435;BME280;45241;49.768;8.636;2024-01-15T04:06:04;99063.97;;;-1.66;100.00
59435;BME280;45241;49.768;8.636;2024-01-15T04:08:29;99063.72;;;-1.63;100.00
59435;BME280;45241;49.768;8.636;2024-01-15T04:10:55;99063.44;;;-1.60;100.00
59435;BME280;45241;49.768;8.636;2024-01-15T04:13:21;99059.56;;;-1.66;100.00
59435;BME280;45241;49.768;8.636;2024-01-15T04:15:46;99066.47;;;-1.65;100.00
59435;BME280;45241;49.768;8.636;2024-01-15T04:18:11;99074.91;;;-1.61;100.00
59435;BME280;45241;49.768;8.636;2024-01-15T04:20:36;99067.28;;;-1.64;100.00
59435;BME280;45241;49.768;8.636;2024-01-15T04:23:02;99070.91;;;-1.65;100.00
59435;BME280;45241;49.768;8.636;2024-01-15T04:25:27;99059.69;;;-1.58;100.00
59435;BME280;45241;49.768;8.636;2024-01-15T04:27:52;99049.03;;;-1.66;100.00
59435;BME280;45241;49.768;8.636;2024-01-15T04:30:18;99038.22;;;-1.53;100.00
59435;BME280;45241;49.768;8.636;2024-01-15T04:32:43;99047.38;;;-1.57;100.00
59435;BME280;45241;49.768;8.636;2024-01-15T04:35:08;99052.78;;;-1.68;100.00
59435;BME280;45241;49.768;8.636;2024-01-15T04:37:34;99051.53;;;-1.64;100.00
59435;BME280;45241;49.768;8.636;2024-01-15T04:39:59;99046.00;;;-1.61;100.00
59435;BME280;45241;49.768;8.636;2024-01-15T04:42:24;99035.59;;;-1.53;100.00
59435;BME280;45241;49.768;8.636;2024-01-15T04:44:50;99038.63;;;-1.48;100.00
59435;BME280;45241;49.768;8.636;2024-01-15T04:47:15;99034.34;;;-1.49;100.00
59435;BME280;45241;49.768;8.636;2024-01-15T04:49:40;99044.56;;;-1.46;100.00
59435;BME280;45241;49.768;8.636;2024-01-15T04:52:06;99034.28;;;-1.39;100.00
59435;BME280;45241;49.768;8.636;2024-01-15T04:54:31;99039.31;;;-1.46;100.00
59435;BME280;45241;49.768;8.636;2024-01-15T04:56:56;99039.31;;;-1.46;100.00
59435;BME280;45241;49.768;8.636;2024-01-15T04:59:22;99040.44;;;-1.48;100.00
59435;BME280;45241;49.768;8.636;2024-01-15T05:01:48;99048.25;;;-1.39;100.00
59435;BME280;45241;49.768;8.636;2024-01-15T05:04:14;99035.94;;;-1.38;100.00
59435;BME280;45241;49.768;8.636;2024-01-15T05:06:39;99031.50;;;-1.38;100.00
59435;BME280;45241;49.768;8.636;2024-01-15T05:09:04;99035.25;;;-1.40;100.00
59435;BME280;45241;49.768;8.636;2024-01-15T05:11:30;99032.22;;;-1.36;100.00
59435;BME280;45241;49.768;8.636;2024-01-15T05:13:55;99029.63;;;-1.45;100.00
59435;BME280;45241;49.768;8.636;2024-01-15T05:16:20;99028.22;;;-1.40;100.00
59435;BME280;45241;49.768;8.636;2024-01-15T05:18:45;99033.09;;;-1.45;100.00
59435;BME280;45241;49.768;8.636;2024-01-15T05:21:11;99035.56;;;-1.43;100.00
59435;BME280;45241;49.768;8.636;2024-01-15T05:23:37;99032.56;;;-1.48;100.00
59435;BME280;45241;49.768;8.636;2024-01-15T05:26:03;99019.34;;;-1.39;100.00
59435;BME280;45241;49.768;8.636;2024-01-15T05:28:28;99019.25;;;-1.47;100.00
59435;BME280;45241;49.768;8.636;2024-01-15T05:30:53;99012.50;;;-1.49;100.00
59435;BME280;45241;49.768;8.636;2024-01-15T05:33:20;99019.22;;;-1.37;100.00
59435;BME280;45241;49.768;8.636;2024-01-15T05:35:46;99016.19;;;-1.42;100.00
59435;BME280;45241;49.768;8.636;2024-01-15T05:38:11;99015.88;;;-1.39;100.00
59435;BME280;45241;49.768;8.636;2024-01-15T05:40:37;99016.00;;;-1.31;100.00
59435;BME280;45241;49.768;8.636;2024-01-15T05:43:03;99013.22;;;-1.30;100.00
59435;BME280;45241;49.768;8.636;2024-01-15T05:45:30;99025.00;;;-1.34;100.00
59435;BME280;45241;49.768;8.636;2024-01-15T05:47:55;99030.44;;;-1.45;100.00
59435;BME280;45241;49.768;8.636;2024-01-15T05:50:21;99025.38;;;-1.56;100.00
59435;BME280;45241;49.768;8.636;2024-01-15T05:52:47;99028.28;;;-1.59;100.00
59435;BME280;45241;49.768;8.636;2024-01-15T05:55:12;99018.63;;;-1.68;100.00
59435;BME280;45241;49.768;8.636;2024-01-15T05:57:37;99024.53;;;-1.57;100.00
59435;BME280;45241;49.768;8.636;2024-01-15T06:00:04;99016.81;;;-1.58;100.00
59435;BME280;45241;49.768;8.636;2024-01-15T06:02:29;99023.03;;;-1.59;100.00
59435;BME280;45241;49.768;8.636;2024-01-15T06:04:54;99021.22;;;-1.49;100.00
59435;BME280;45241;49.768;8.636;2024-01-15T06:07:20;99008.22;;;-1.50;100.00
59435;BME280;45241;49.768;8.636;2024-01-15T06:09:45;99012.75;;;-1.52;100.00
59435;BME280;45241;49.768;8.636;2024-01-15T06:12:10;99012.44;;;-1.40;100.00
59435;BME280;45241;49.768;8.636;2024-01-15T06:14:36;99013.03;;;-1.46;100.00
59435;BME280;45241;49.768;8.636;2024-01-15T06:17:01;99011.06;;;-1.44;100.00
59435;BME280;45241;49.768;8.636;2024-01-15T06:19:26;99009.81;;;-1.40;100.00
59435;BME280;45241;49.768;8.636;2024-01-15T06:21:52;99001.72;;;-1.29;100.00
59435;BME280;45241;49.768;8.636;2024-01-15T06:24:17;99002.75;;;-1.39;100.00
59435;BME280;45241;49.768;8.636;2024-01-15T06:26:46;99004.34;;;-1.29;100.00
59435;BME280;45241;49.768;8.636;2024-01-15T06:29:11;99003.84;;;-1.32;100.00
59435;BME280;45241;49.768;8.636;2024-01-15T06:31:37;98999.09;;;-1.29;100.00
59435;BME280;45241;49.768;8.636;2024-01-15T06:34:02;99004.88;;;-1.25;100.00
59435;BME280;45241;49.768;8.636;2024-01-15T06:36:27;98998.81;;;-1.25;100.00
59435;BME280;45241;49.768;8.636;2024-01-15T06:38:52;98996.06;;;-1.24;100.00
59435;BME280;45241;49.768;8.636;2024-01-15T06:41:18;99002.66;;;-1.20;100.00
59435;BME280;45241;49.768;8.636;2024-01-15T06:43:43;99001.53;;;-1.17;100.00
59435;BME280;45241;49.768;8.636;2024-01-15T06:46:08;98999.59;;;-1.15;100.00
59435;BME280;45241;49.768;8.636;2024-01-15T06:48:34;98997.06;;;-1.07;100.00
59435;BME280;45241;49.768;8.636;2024-01-15T06:50:59;98998.94;;;-1.00;100.00
59435;BME280;45241;49.768;8.636;2024-01-15T06:53:24;98998.56;;;-1.05;100.00
59435;BME280;45241;49.768;8.636;2024-01-15T06:55:50;98992.63;;;-1.07;100.00
59435;BME280;45241;49.768;8.636;2024-01-15T06:58:16;98993.66;;;-1.00;100.00
59435;BME280;45241;49.768;8.636;2024-01-15T07:00:41;98996.19;;;-0.98;100.00
59435;BME280;45241;49.768;8.636;2024-01-15T07:03:06;98984.75;;;-0.89;100.00
59435;BME280;45241;49.768;8.636;2024-01-15T07:05:32;98982.13;;;-0.89;100.00
59435;BME280;45241;49.768;8.636;2024-01-15T07:07:58;98991.06;;;-0.82;100.00
59435;BME280;45241;49.768;8.636;2024-01-15T07:10:23;98988.00;;;-0.77;100.00
59435;BME280;45241;49.768;8.636;2024-01-15T07:12:48;98983.78;;;-0.70;100.00
59435;BME280;45241;49.768;8.636;2024-01-15T07:15:14;98993.31;;;-0.87;100.00
59435;BME280;45241;49.768;8.636;2024-01-15T07:17:40;98990.56;;;-0.85;100.00
59435;BME280;45241;49.768;8.636;2024-01-15T07:20:06;98986.78;;;-0.83;100.00
59435;BME280;45241;49.768;8.636;2024-01-15T07:22:33;98993.31;;;-0.87;100.00
59435;BME280;45241;49.768;8.636;2024-01-15T07:24:58;99007.75;;;-0.91;100.00
59435;BME280;45241;49.768;8.636;2024-01-15T07:27:24;99005.13;;;-0.91;100.00
59435;BME280;45241;49.768;8.636;2024-01-15T07:29:49;99000.16;;;-0.94;100.00
59435;BME280;45241;49.768;8.636;2024-01-15T07:32:15;99006.09;;;-0.92;100.00
59435;BME280;45241;49.768;8.636;2024-01-15T07:34:40;99002.75;;;-0.84;100.00
59435;BME280;45241;49.768;8.636;2024-01-15T07:37:05;99003.47;;;-0.92;100.00
59435;BME280;45241;49.768;8.636;2024-01-15T07:39:31;99007.44;;;-0.88;100.00
59435;BME280;45241;49.768;8.636;2024-01-15T07:41:56;99004.97;;;-0.89;100.00
59435;BME280;45241;49.768;8.636;2024-01-15T07:44:22;99000.22;;;-0.86;100.00
59435;BME280;45241;49.768;8.636;2024-01-15T07:46:47;98998.31;;;-0.84;100.00
59435;BME280;45241;49.768;8.636;2024-01-15T07:49:13;98997.69;;;-0.78;100.00
59435;BME280;45241;49.768;8.636;2024-01-15T07:51:38;98997.69;;;-0.78;100.00
59435;BME280;45241;49.768;8.636;2024-01-15T07:54:06;98986.34;;;-0.78;100.00
59435;BME280;45241;49.768;8.636;2024-01-15T07:56:31;98987.69;;;-0.74;100.00
59435;BME280;45241;49.768;8.636;2024-01-15T07:58:56;98989.72;;;-0.68;100.00
59435;BME280;45241;49.768;8.636;2024-01-15T08:01:22;98980.63;;;-0.74;100.00
59435;BME280;45241;49.768;8.636;2024-01-15T08:03:47;98986.44;;;-0.70;100.00
59435;BME280;45241;49.768;8.636;2024-01-15T08:06:13;98983.63;;;-0.69;100.00
59435;BME280;45241;49.768;8.636;2024-01-15T08:08:38;98982.50;;;-0.66;100.00
59435;BME280;45241;49.768;8.636;2024-01-15T08:11:05;98985.50;;;-0.61;100.00
59435;BME280;45241;49.768;8.636;2024-01-15T08:13:30;98991.59;;;-0.60;100.00
59435;BME280;45241;49.768;8.636;2024-01-15T08:15:55;98992.38;;;-0.68;100.00
59435;BME280;45241;49.768;8.636;2024-01-15T08:18:21;98994.47;;;-0.72;100.00
59435;BME280;45241;49.768;8.636;2024-01-15T08:20:46;98980.53;;;-0.64;100.00
59435;BME280;45241;49.768;8.636;2024-01-15T08:23:12;98984.69;;;-0.61;100.00
59435;BME280;45241;49.768;8.636;2024-01-15T08:25:37;98987.03;;;-0.58;100.00
59435;BME280;45241;49.768;8.636;2024-01-15T08:28:02;98983.25;;;-0.56;100.00
59435;BME280;45241;49.768;8.636;2024-01-15T08:30:28;98975.69;;;-0.59;100.00
59435;BME280;45241;49.768;8.636;2024-01-15T08:32:55;98977.53;;;-0.51;100.00
59435;BME280;45241;49.768;8.636;2024-01-15T08:35:20;98983.13;;;-0.54;100.00
59435;BME280;45241;49.768;8.636;2024-01-15T08:37:49;98980.00;;;-0.50;100.00
59435;BME280;45241;49.768;8.636;2024-01-15T08:40:15;98986.41;;;-0.52;100.00
59435;BME280;45241;49.768;8.636;2024-01-15T08:42:41;98983.09;;;-0.36;100.00
59435;BME280;45241;49.768;8.636;2024-01-15T08:45:06;98976.31;;;-0.39;100.00
59435;BME280;45241;49.768;8.636;2024-01-15T08:47:31;98970.53;;;-0.43;100.00
59435;BME280;45241;49.768;8.636;2024-01-15T08:49:57;98964.81;;;-0.38;100.00
59435;BME280;45241;49.768;8.636;2024-01-15T08:52:23;98963.81;;;-0.37;100.00
59435;BME280;45241;49.768;8.636;2024-01-15T08:54:49;98959.94;;;-0.33;100.00
59435;BME280;45241;49.768;8.636;2024-01-15T08:57:14;98954.34;;;-0.30;100.00
59435;BME280;45241;49.768;8.636;2024-01-15T08:59:39;98964.06;;;-0.30;100.00
59435;BME280;45241;49.768;8.636;2024-01-15T09:02:06;98959.63;;;-0.30;100.00
59435;BME280;45241;49.768;8.636;2024-01-15T09:04:32;98947.44;;;-0.31;100.00
59435;BME280;45241;49.768;8.636;2024-01-15T09:06:57;98948.44;;;-0.24;100.00
59435;BME280;45241;49.768;8.636;2024-01-15T09:09:23;98965.09;;;-0.23;100.00
59435;BME280;45241;49.768;8.636;2024-01-15T09:11:48;98957.09;;;-0.14;100.00
59435;BME280;45241;49.768;8.636;2024-01-15T09:14:13;98955.75;;;-0.18;100.00
59435;BME280;45241;49.768;8.636;2024-01-15T09:16:39;98981.13;;;-0.17;100.00
59435;BME280;45241;49.768;8.636;2024-01-15T09:19:05;98972.13;;;-0.06;100.00
59435;BME280;45241;49.768;8.636;2024-01-15T09:21:30;98975.88;;;-0.09;100.00
59435;BME280;45241;49.768;8.636;2024-01-15T09:23:55;98974.22;;;-0.10;100.00
59435;BME280;45241;49.768;8.636;2024-01-15T09:26:21;98993.16;;;-0.14;100.00
59435;BME280;45241;49.768;8.636;2024-01-15T09:28:46;98992.63;;;-0.18;100.00
59435;BME280;45241;49.768;8.636;2024-01-15T09:31:11;98994.47;;;-0.10;100.00
59435;BME280;45241;49.768;8.636;2024-01-15T09:33:37;98995.09;;;-0.16;100.00
59435;BME280;45241;49.768;8.636;2024-01-15T09:36:09;99000.97;;;-0.22;100.00
59435;BME280;45241;49.768;8.636;2024-01-15T09:38:34;98986.06;;;-0.14;100.00
59435;BME280;45241;49.768;8.636;2024-01-15T09:41:00;98992.81;;;-0.11;100.00
59435;BME280;45241;49.768;8.636;2024-01-15T09:43:25;98985.88;;;-0.20;100.00
59435;BME280;45241;49.768;8.636;2024-01-15T09:45:51;98989.28;;;-0.02;100.00
59435;BME280;45241;49.768;8.636;2024-01-15T09:48:18;98987.63;;;-0.03;100.00
59435;BME280;45241;49.768;8.636;2024-01-15T09:50:43;98982.56;;;0.04;100.00
59435;BME280;45241;49.768;8.636;2024-01-15T09:53:09;98981.94;;;0.10;100.00
59435;BME280;45241;49.768;8.636;2024-01-15T09:55:36;98984.91;;;0.07;100.00
59435;BME280;45241;49.768;8.636;2024-01-15T09:58:03;98982.63;;;0.12;100.00
59435;BME280;45241;49.768;8.636;2024-01-15T10:00:29;98984.22;;;0.05;100.00
59435;BME280;45241;49.768;8.636;2024-01-15T10:02:58;98973.88;;;0.11;100.00
59435;BME280;45241;49.768;8.636;2024-01-15T10:05:26;98985.72;;;0.07;100.00
59435;BME280;45241;49.768;8.636;2024-01-15T10:07:51;98970.75;;;0.08;100.00
59435;BME280;45241;49.768;8.636;2024-01-15T10:10:18;98969.13;;;0.15;100.00
59435;BME280;45241;49.768;8.636;2024-01-15T10:12:43;98966.88;;;0.20;100.00
59435;BME280;45241;49.768;8.636;2024-01-15T10:15:10;98963.66;;;0.08;100.00
59435;BME280;45241;49.768;8.636;2024-01-15T10:17:37;98960.38;;;0.06;100.00
59435;BME280;45241;49.768;8.636;2024-01-15T10:20:07;98960.66;;;0.03;100.00
59435;BME280;45241;49.768;8.636;2024-01-15T10:22:33;98953.63;;;0.12;100.00
59435;BME280;45241;49.768;8.636;2024-01-15T10:24:58;98959.00;;;0.02;100.00
59435;BME280;45241;49.768;8.636;2024-01-15T10:27:23;98950.16;;;0.11;100.00
59435;BME280;45241;49.768;8.636;2024-01-15T10:29:49;98950.59;;;-0.01;100.00
59435;BME280;45241;49.768;8.636;2024-01-15T10:32:14;98948.16;;;0.05;100.00
59435;BME280;45241;49.768;8.636;2024-01-15T10:34:40;98945.31;;;-0.01;100.00
59435;BME280;45241;49.768;8.636;2024-01-15T10:37:09;98949.50;;;0.09;100.00
59435;BME280;45241;49.768;8.636;2024-01-15T10:39:35;98952.97;;;0.10;100.00
59435;BME280;45241;49.768;8.636;2024-01-15T10:42:01;98945.41;;;0.15;100.00
59435;BME280;45241;49.768;8.636;2024-01-15T10:44:26;98937.16;;;0.10;100.00
59435;BME280;45241;49.768;8.636;2024-01-15T10:46:52;98945.56;;;0.13;100.00
59435;BME280;45241;49.768;8.636;2024-01-15T10:49:18;98941.44;;;0.11;100.00
59435;BME280;45241;49.768;8.636;2024-01-15T10:51:45;98934.34;;;0.11;100.00
59435;BME280;45241;49.768;8.636;2024-01-15T10:54:13;98916.63;;;0.22;100.00
59435;BME280;45241;49.768;8.636;2024-01-15T10:56:39;98916.63;;;0.22;100.00
59435;BME280;45241;49.768;8.636;2024-01-15T10:59:04;98923.72;;;0.21;100.00
59435;BME280;45241;49.768;8.636;2024-01-15T11:01:30;98921.41;;;0.26;100.00
59435;BME280;45241;49.768;8.636;2024-01-15T11:03:56;98919.44;;;0.20;100.00
59435;BME280;45241;49.768;8.636;2024-01-15T11:06:25;98922.72;;;0.22;100.00
59435;BME280;45241;49.768;8.636;2024-01-15T11:08:52;98927.63;;;0.17;100.00
59435;BME280;45241;49.768;8.636;2024-01-15T11:11:18;98911.84;;;0.25;100.00
59435;BME280;45241;49.768;8.636;2024-01-15T11:13:46;98910.81;;;0.18;100.00
59435;BME280;45241;49.768;8.636;2024-01-15T11:16:14;98914.16;;;0.20;100.00
59435;BME280;45241;49.768;8.636;2024-01-15T11:21:23;98922.72;;;0.22;100.00
59435;BME280;45241;49.768;8.636;2024-01-15T11:23:58;98916.50;;;0.31;100.00
59435;BME280;45241;49.768;8.636;2024-01-15T11:26:36;98923.44;;;0.40;100.00
59435;BME280;45241;49.768;8.636;2024-01-15T11:29:07;98910.38;;;0.31;100.00
59435;BME280;45241;49.768;8.636;2024-01-15T11:34:05;98907.13;;;0.37;100.00
59435;BME280;45241;49.768;8.636;2024-01-15T11:42:03;98890.88;;;0.49;100.00
59435;BME280;45241;49.768;8.636;2024-01-15T11:44:29;98896.31;;;0.48;100.00
59435;BME280;45241;49.768;8.636;2024-01-15T11:47:00;98884.59;;;0.50;100.00
59435;BME280;45241;49.768;8.636;2024-01-15T11:49:55;98888.41;;;0.56;100.00
59435;BME280;45241;49.768;8.636;2024-01-15T11:52:23;98899.47;;;0.68;100.00
59435;BME280;45241;49.768;8.636;2024-01-15T11:57:47;98901.66;;;0.72;100.00
59435;BME280;45241;49.768;8.636;2024-01-15T12:00:15;98903.97;;;0.84;100.00
59435;BME280;45241;49.768;8.636;2024-01-15T12:02:44;98895.69;;;0.70;100.00
59435;BME280;45241;49.768;8.636;2024-01-15T12:05:11;98892.28;;;0.86;100.00
59435;BME280;45241;49.768;8.636;2024-01-15T12:07:40;98892.94;;;0.88;100.00
59435;BME280;45241;49.768;8.636;2024-01-15T12:10:10;98884.38;;;1.02;100.00
59435;BME280;45241;49.768;8.636;2024-01-15T12:15:10;98900.41;;;1.25;100.00
59435;BME280;45241;49.768;8.636;2024-01-15T12:17:35;98886.88;;;1.45;100.00
59435;BME280;45241;49.768;8.636;2024-01-15T12:20:05;98888.19;;;1.65;100.00
59435;BME280;45241;49.768;8.636;2024-01-15T12:22:31;98888.34;;;1.55;100.00
59435;BME280;45241;49.768;8.636;2024-01-15T12:24:56;98892.81;;;1.63;100.00
59435;BME280;45241;49.768;8.636;2024-01-15T12:27:23;98881.72;;;1.67;100.00
59435;BME280;45241;49.768;8.636;2024-01-15T12:29:48;98883.06;;;1.47;100.00
59435;BME280;45241;49.768;8.636;2024-01-15T12:32:14;98886.03;;;1.52;100.00
59435;BME280;45241;49.768;8.636;2024-01-15T12:34:39;98888.38;;;1.39;100.00
59435;BME280;45241;49.768;8.636;2024-01-15T12:37:07;98880.75;;;1.36;100.00
59435;BME280;45241;49.768;8.636;2024-01-15T12:39:34;98872.50;;;1.31;100.00
59435;BME280;45241;49.768;8.636;2024-01-15T12:42:00;98869.22;;;1.29;100.00
59435;BME280;45241;49.768;8.636;2024-01-15T12:44:26;98884.88;;;1.30;100.00
59435;BME280;45241;49.768;8.636;2024-01-15T12:46:51;98881.09;;;1.33;100.00
59435;BME280;45241;49.768;8.636;2024-01-15T12:49:17;98890.97;;;1.23;100.00
59435;BME280;45241;49.768;8.636;2024-01-15T12:51:42;98897.44;;;1.28;100.00
59435;BME280;45241;49.768;8.636;2024-01-15T12:54:07;98899.75;;;1.23;100.00
59435;BME280;45241;49.768;8.636;2024-01-15T12:56:33;98899.91;;;1.22;100.00
59435;BME280;45241;49.768;8.636;2024-01-15T12:58:58;98900.22;;;1.19;100.00
59435;BME280;45241;49.768;8.636;2024-01-15T13:01:24;98893.97;;;1.20;100.00